createdAt,value
2019-01-11T00:02:40.111Z,100.00
2019-01-11T00:07:42.399Z,100.00
2019-01-11T00:12:45.392Z,100.00
2019-01-11T00:17:48.071Z,100.00
2019-01-11T00:22:50.894Z,100.00
2019-01-11T00:27:53.897Z,100.00
2019-01-11T00:32:56.165Z,100.00
2019-01-11T00:37:58.913Z,100.00
2019-01-11T00:43:01.523Z,100.00
2019-01-11T00:48:04.712Z,100.00
2019-01-11T00:53:07.502Z,100.00
2019-01-11T00:58:10.502Z,100.00
2019-01-11T01:03:13.201Z,100.00
2019-01-11T01:08:15.701Z,100.00
2019-01-11T01:13:18.700Z,100.00
2019-01-11T01:18:21.913Z,100.00
2019-01-11T01:23:25.116Z,100.00
2019-01-11T01:28:28.349Z,100.00
2019-01-11T01:33:30.728Z,100.00
2019-01-11T01:38:33.530Z,100.00
2019-01-11T01:43:36.030Z,100.00
2019-01-11T01:48:38.915Z,100.00
2019-01-11T01:53:41.418Z,100.00
2019-01-11T01:58:44.084Z,100.00
2019-01-11T02:03:46.691Z,100.00
2019-01-11T02:08:49.608Z,100.00
2019-01-11T02:13:51.806Z,100.00
2019-01-11T02:18:55.407Z,100.00
2019-01-11T02:23:58.060Z,100.00
2019-01-11T02:29:00.763Z,100.00
2019-01-11T02:34:03.678Z,100.00
2019-01-11T02:39:07.235Z,100.00
2019-01-11T02:44:10.003Z,100.00
2019-01-11T02:49:12.030Z,100.00
2019-01-11T02:54:14.104Z,100.00
2019-01-11T02:59:16.793Z,100.00
2019-01-11T03:04:19.415Z,100.00
2019-01-11T03:09:21.626Z,100.00
2019-01-11T03:14:24.303Z,100.00
2019-01-11T03:19:27.112Z,100.00
2019-01-11T03:24:29.886Z,100.00
2019-01-11T03:29:32.678Z,100.00
2019-01-11T03:34:39.273Z,100.00
2019-01-11T03:39:41.866Z,100.00
2019-01-11T03:44:44.437Z,100.00
2019-01-11T03:49:47.180Z,100.00
2019-01-11T03:54:49.339Z,100.00
2019-01-11T03:59:51.973Z,100.00
2019-01-11T04:04:54.843Z,100.00
2019-01-11T04:09:57.632Z,100.00
2019-01-11T04:15:00.241Z,100.00
2019-01-11T04:20:04.475Z,100.00
2019-01-11T04:25:09.875Z,100.00
2019-01-11T04:30:14.991Z,100.00
2019-01-11T04:35:18.284Z,100.00
2019-01-11T04:40:21.081Z,100.00
2019-01-11T04:45:23.692Z,100.00
2019-01-11T04:50:26.194Z,100.00
2019-01-11T04:55:29.193Z,100.00
2019-01-11T05:00:31.419Z,100.00
2019-01-11T05:05:34.242Z,100.00
2019-01-11T05:10:37.163Z,100.00
2019-01-11T05:15:39.880Z,100.00
2019-01-11T05:20:42.989Z,100.00
2019-01-11T05:25:45.891Z,100.00
2019-01-11T05:30:48.608Z,100.00
2019-01-11T05:35:51.472Z,100.00
2019-01-11T05:40:53.465Z,100.00
2019-01-11T05:45:56.068Z,100.00
2019-01-11T05:50:58.733Z,100.00
2019-01-11T05:56:06.701Z,100.00
2019-01-11T06:01:09.597Z,100.00
2019-01-11T06:06:12.806Z,100.00
2019-01-11T06:11:15.808Z,100.00
2019-01-11T06:16:17.917Z,100.00
2019-01-11T06:21:19.946Z,100.00
2019-01-11T06:26:22.588Z,100.00
2019-01-11T06:31:24.972Z,100.00
2019-01-11T06:36:27.569Z,100.00
2019-01-11T06:41:39.684Z,100.00
2019-01-11T06:46:42.167Z,100.00
2019-01-11T06:51:45.150Z,100.00
2019-01-11T06:56:48.282Z,100.00
2019-01-11T07:01:50.668Z,100.00
2019-01-11T07:06:53.598Z,100.00
2019-01-11T07:11:56.345Z,100.00
2019-01-11T07:16:58.377Z,100.00
2019-01-11T07:22:01.511Z,100.00
2019-01-11T07:27:03.446Z,100.00
2019-01-11T07:32:06.652Z,100.00
2019-01-11T07:37:09.468Z,100.00
2019-01-11T07:42:11.857Z,100.00
2019-01-11T07:47:14.911Z,100.00
2019-01-11T07:52:18.177Z,100.00
2019-01-11T07:57:20.255Z,100.00
2019-01-11T08:02:22.741Z,100.00
2019-01-11T08:07:24.879Z,100.00
2019-01-11T08:12:27.118Z,100.00
2019-01-11T08:17:29.509Z,100.00
2019-01-11T08:22:37.127Z,100.00
2019-01-11T08:27:39.983Z,100.00
2019-01-11T08:32:42.314Z,100.00
2019-01-11T08:37:46.534Z,100.00
2019-01-11T08:42:49.218Z,100.00
2019-01-11T08:47:51.537Z,100.00
2019-01-11T08:52:55.247Z,100.00
2019-01-11T08:57:58.278Z,100.00
2019-01-11T09:03:00.301Z,100.00
2019-01-11T09:08:03.661Z,100.00
2019-01-11T09:13:06.152Z,100.00
2019-01-11T09:18:30.042Z,100.00
2019-01-11T09:23:32.645Z,100.00
2019-01-11T09:28:35.032Z,100.00
2019-01-11T09:33:37.721Z,100.00
2019-01-11T09:38:40.498Z,100.00
2019-01-11T09:43:42.723Z,100.00
2019-01-11T09:48:45.213Z,100.00
2019-01-11T09:53:47.961Z,100.00
2019-01-11T09:58:50.067Z,100.00
2019-01-11T10:03:52.855Z,100.00
2019-01-11T10:08:55.262Z,100.00
2019-01-11T10:13:58.150Z,100.00
2019-01-11T10:19:00.803Z,100.00
2019-01-11T10:24:03.648Z,100.00
2019-01-11T10:29:06.181Z,100.00
2019-01-11T10:34:08.779Z,100.00
2019-01-11T10:39:11.398Z,99.18
2019-01-11T10:44:14.229Z,98.96
2019-01-11T10:49:17.058Z,97.91
2019-01-11T10:54:32.968Z,96.83
2019-01-11T10:59:35.296Z,97.37
2019-01-11T11:04:38.579Z,96.55
2019-01-11T11:09:41.545Z,95.21
2019-01-11T11:14:44.085Z,94.58
2019-01-11T11:19:46.881Z,93.34
2019-01-11T11:24:49.738Z,93.56
2019-01-11T11:29:52.670Z,93.33
2019-01-11T11:34:55.335Z,93.09
2019-01-11T11:39:57.784Z,91.92
2019-01-11T11:44:59.864Z,92.05
2019-01-11T11:50:02.345Z,92.46
2019-01-11T11:55:05.757Z,89.70
2019-01-11T12:00:11.651Z,90.07
2019-01-11T12:05:14.706Z,88.84
2019-01-11T12:10:17.852Z,89.05
2019-01-11T12:15:20.947Z,89.35
2019-01-11T12:20:29.148Z,89.52
2019-01-11T12:25:31.994Z,88.89
2019-01-11T12:30:34.897Z,87.97
2019-01-11T12:35:37.627Z,86.93
2019-01-11T12:40:40.501Z,87.04
2019-01-11T12:45:42.916Z,86.41
2019-01-11T12:50:45.636Z,85.87
2019-01-11T12:55:48.577Z,84.29
2019-01-11T13:00:50.810Z,83.65
2019-01-11T13:05:53.642Z,84.70
2019-01-11T13:10:56.208Z,85.81
2019-01-11T13:15:58.953Z,85.25
2019-01-11T13:21:01.453Z,86.30
2019-01-11T13:26:04.712Z,87.12
2019-01-11T13:31:07.531Z,86.77
2019-01-11T13:36:14.684Z,86.78
2019-01-11T13:41:17.331Z,86.32
2019-01-11T13:46:20.161Z,85.60
2019-01-11T13:51:22.853Z,85.92
2019-01-11T13:56:25.506Z,85.38
2019-01-11T14:01:28.384Z,85.18
2019-01-11T14:06:31.277Z,83.91
2019-01-11T14:11:33.949Z,84.26
2019-01-11T14:16:36.754Z,84.44
2019-01-11T14:21:39.431Z,84.45
2019-01-11T14:26:42.380Z,84.01
2019-01-11T14:31:45.492Z,83.97
2019-01-11T14:36:48.282Z,83.81
2019-01-11T14:41:51.254Z,84.31
2019-01-11T14:46:54.191Z,83.93
2019-01-11T14:51:57.428Z,84.11
2019-01-11T14:57:00.239Z,84.14
2019-01-11T15:02:02.893Z,84.66
2019-01-11T15:07:05.894Z,85.05
2019-01-11T15:12:08.502Z,85.15
2019-01-11T15:17:11.103Z,85.44
2019-01-11T15:22:14.398Z,85.36
2019-01-11T15:27:16.273Z,85.58
2019-01-11T15:32:18.912Z,85.22
2019-01-11T15:37:22.015Z,84.85
2019-01-11T15:42:24.785Z,84.76
2019-01-11T15:47:27.512Z,84.58
2019-01-11T15:52:33.483Z,84.93
2019-01-11T15:57:41.891Z,85.01
2019-01-11T16:02:44.652Z,85.13
2019-01-11T16:07:48.811Z,85.42
2019-01-11T16:13:20.907Z,86.09
2019-01-11T16:18:25.961Z,86.46
2019-01-11T16:23:28.822Z,86.63
2019-01-11T16:28:31.616Z,86.34
2019-01-11T16:33:34.070Z,86.76
2019-01-11T16:38:36.458Z,87.13
2019-01-11T16:43:39.724Z,86.67
2019-01-11T16:48:42.164Z,87.04
2019-01-11T16:53:45.257Z,87.05
2019-01-11T16:58:48.158Z,87.12
2019-01-11T17:03:50.661Z,87.04
2019-01-11T17:08:53.755Z,86.76
2019-01-11T17:13:56.660Z,87.51
2019-01-11T17:18:59.451Z,87.78
2019-01-11T17:24:01.959Z,86.63
2019-01-11T17:29:04.989Z,86.96
2019-01-11T17:34:08.294Z,87.47
2019-01-11T17:39:11.047Z,87.31
2019-01-11T17:44:13.566Z,87.32
2019-01-11T17:49:16.477Z,87.57
2019-01-11T17:54:19.221Z,87.17
2019-01-11T17:59:21.662Z,86.80
2019-01-11T18:04:24.473Z,86.79
2019-01-11T18:09:27.306Z,87.34
2019-01-11T18:14:29.562Z,87.07
2019-01-11T18:19:32.715Z,87.06
2019-01-11T18:24:35.679Z,86.63
2019-01-11T18:29:38.824Z,86.57
2019-01-11T18:34:41.900Z,86.06
2019-01-11T18:39:44.699Z,85.97
2019-01-11T18:44:47.589Z,85.71
2019-01-11T18:49:51.408Z,85.17
2019-01-11T18:54:54.107Z,85.40
2019-01-11T18:59:56.813Z,85.24
2019-01-11T19:04:59.713Z,84.66
2019-01-11T19:10:03.256Z,84.14
2019-01-11T19:15:08.487Z,84.23
2019-01-11T19:20:18.051Z,84.61
2019-01-11T19:25:21.281Z,84.50
2019-01-11T19:30:27.124Z,84.02
2019-01-11T19:35:29.821Z,84.04
2019-01-11T19:40:33.379Z,84.30
2019-01-11T19:45:36.631Z,85.12
2019-01-11T19:50:40.636Z,84.35
2019-01-11T19:55:43.523Z,84.50
2019-01-11T20:00:47.901Z,84.64
2019-01-11T20:05:50.402Z,84.79
2019-01-11T20:10:55.158Z,84.67
2019-01-11T20:16:01.135Z,85.07
2019-01-11T20:21:05.138Z,85.12
2019-01-11T20:26:09.530Z,85.05
2019-01-11T20:31:14.109Z,85.46
2019-01-11T20:36:17.610Z,85.26
2019-01-11T20:41:23.803Z,85.45
2019-01-11T20:46:29.987Z,85.04
2019-01-11T20:51:34.085Z,85.30
2019-01-11T20:56:38.279Z,85.64
2019-01-11T21:01:42.977Z,85.92
2019-01-11T21:06:47.751Z,85.48
2019-01-11T21:11:51.665Z,85.49
2019-01-11T21:16:54.764Z,85.18
2019-01-11T21:21:58.566Z,85.19
2019-01-11T21:27:01.956Z,85.78
2019-01-11T21:32:04.771Z,85.87
2019-01-11T21:37:08.289Z,86.08
2019-01-11T21:42:11.448Z,86.04
2019-01-11T21:47:14.063Z,86.22
2019-01-11T21:52:16.884Z,86.59
2019-01-11T21:57:19.512Z,85.66
2019-01-11T22:02:21.870Z,86.42
2019-01-11T22:07:24.157Z,86.42
2019-01-11T22:12:27.366Z,86.77
2019-01-11T22:17:30.151Z,86.70
2019-01-11T22:22:32.842Z,86.62
2019-01-11T22:27:35.777Z,86.74
2019-01-11T22:32:38.800Z,86.80
2019-01-11T22:37:41.990Z,87.40
2019-01-11T22:42:44.957Z,87.38
2019-01-11T22:47:48.085Z,86.48
2019-01-11T22:52:50.577Z,86.90
2019-01-11T22:57:53.372Z,87.35
2019-01-11T23:02:57.633Z,88.05
2019-01-11T23:08:03.193Z,86.82
2019-01-11T23:13:09.449Z,87.38
2019-01-11T23:18:14.119Z,87.47
2019-01-11T23:23:17.119Z,87.58
2019-01-11T23:28:19.565Z,87.42
2019-01-11T23:33:22.450Z,87.56
2019-01-11T23:38:25.517Z,87.30
2019-01-11T23:43:27.863Z,87.74
2019-01-11T23:48:30.567Z,87.90
2019-01-11T23:53:33.100Z,87.51
2019-01-11T23:58:35.756Z,87.89
